Time;durP1;ratioP1;P1;durP2;ratioP2;P2;SDS_P1;SDS_P2;PMS_P1;PMS_P2;Temp;Humidity;BMP_temperature;BMP_pressure;BME280_temperature;BME280_humidity;BME280_pressure;Samples;Min_cycle;Max_cycle;Signal;HPM_P1;HPM_P2
2023/10/12 00:01:58;;;;;;;;;;;11.70;78.80;;;;;;5160911;22;20298;-83
2023/10/12 00:04:18;;;;;;;;;;;11.70;78.80;;;;;;5184617;22;20298;-84
2023/10/12 00:06:43;;;;;;;;;;;11.60;78.70;;;;;;5184865;22;20154;-83
2023/10/12 00:09:17;;;;;;;;;;;11.60;78.60;;;;;;5183686;22;20294;-83
2023/10/12 00:11:40;;;;;;;;;;;11.60;78.60;;;;;;5184759;22;20298;-82
2023/10/12 00:14:01;;;;;;;;;;;11.60;78.60;;;;;;5187147;22;20646;-84
2023/10/12 00:16:21;;;;;;;;;;;11.60;78.50;;;;;;5185575;22;20329;-84
2023/10/12 00:18:45;;;;;;;;;;;11.60;78.50;;;;;;5179869;22;20317;-84
2023/10/12 00:20:54;;;;;;;;;;;11.70;78.60;;;;;;5181422;22;19907;-84
2023/10/12 00:22:58;;;;;;;;;;;11.50;78.40;;;;;;5184090;22;19911;-84
2023/10/12 00:25:04;;;;;;;;;;;11.60;78.40;;;;;;5159175;23;19926;-83
2023/10/12 00:27:11;;;;;;;;;;;11.50;78.30;;;;;;5157690;23;19921;-83
2023/10/12 00:29:32;;;;;;;;;;;11.40;78.20;;;;;;5186399;22;19907;-84
2023/10/12 00:31:55;;;;;;;;;;;11.40;78.20;;;;;;5186537;22;20330;-83
2023/10/12 00:34:16;;;;;;;;;;;11.40;78.20;;;;;;5185711;22;20457;-83
2023/10/12 00:36:37;;;;;;;;;;;11.40;78.20;;;;;;5185128;22;20228;-84
2023/10/12 00:38:59;;;;;;;;;;;11.40;78.10;;;;;;5185526;22;20602;-83
2023/10/12 00:41:24;;;;;;;;;;;11.40;78.10;;;;;;5202355;22;19899;-82
2023/10/12 00:43:52;;;;;;;;;;;11.40;78.00;;;;;;5213087;22;19891;-83
2023/10/12 00:46:21;;;;;;;;;;;11.30;78.00;;;;;;5213313;22;20216;-83
2023/10/12 00:48:48;;;;;;;;;;;11.40;78.00;;;;;;5190423;22;19964;-82
2023/10/12 00:50:50;;;;;;;;;;;11.30;78.00;;;;;;5184050;22;19924;-82
2023/10/12 00:52:58;;;;;;;;;;;11.30;77.90;;;;;;5198166;22;20331;-84
2023/10/12 00:55:21;;;;;;;;;;;11.30;77.90;;;;;;5185625;22;20251;-84
2023/10/12 00:57:42;;;;;;;;;;;11.20;77.90;;;;;;5190055;22;20353;-83
2023/10/12 01:00:15;;;;;;;;;;;11.30;77.90;;;;;;5189079;22;20247;-82
2023/10/12 01:02:39;;;;;;;;;;;11.10;77.70;;;;;;5188922;22;20231;-83
2023/10/12 01:10:57;;;;;;;;;;;11.10;77.70;;;;;;5188135;22;20224;-84
2023/10/12 01:13:18;;;;;;;;;;;11.20;77.70;;;;;;5188997;22;19973;-84
2023/10/12 01:15:40;;;;;;;;;;;11.00;77.70;;;;;;5188426;22;20223;-84
2023/10/12 01:18:01;;;;;;;;;;;11.00;77.70;;;;;;5187003;22;20321;-83
2023/10/12 01:20:26;;;;;;;;;;;11.00;77.70;;;;;;5166287;22;20359;-84
2023/10/12 01:22:27;;;;;;;;;;;11.00;77.70;;;;;;5188387;22;20009;-84
2023/10/12 01:24:31;;;;;;;;;;;10.90;78.40;;;;;;5187486;22;19913;-82
2023/10/12 01:26:31;;;;;;;;;;;11.00;77.60;;;;;;5162259;23;19937;-84
2023/10/12 01:28:32;;;;;;;;;;;11.00;77.50;;;;;;5187696;22;20665;-84
2023/10/12 01:30:36;;;;;;;;;;;11.00;77.40;;;;;;5188121;22;20482;-85
2023/10/12 01:32:37;;;;;;;;;;;10.90;77.40;;;;;;5161787;22;20294;-84
2023/10/12 01:34:38;;;;;;;;;;;10.90;77.30;;;;;;5162114;23;19912;-84
2023/10/12 01:36:43;;;;;;;;;;;10.90;77.30;;;;;;5161211;23;19942;-84
2023/10/12 01:38:47;;;;;;;;;;;10.80;77.20;;;;;;5188177;22;20262;-83
2023/10/12 01:43:12;;;;;;;;;;;10.80;77.20;;;;;;5183945;22;20232;-84
2023/10/12 01:45:40;;;;;;;;;;;10.80;77.10;;;;;;5187253;22;20266;-84
2023/10/12 01:48:17;;;;;;;;;;;10.70;77.10;;;;;;5186276;22;20455;-83
2023/10/12 01:50:18;;;;;;;;;;;10.70;77.00;;;;;;5157423;23;19911;-84
2023/10/12 01:52:38;;;;;;;;;;;10.60;76.90;;;;;;5185070;22;20331;-84
2023/10/12 01:54:59;;;;;;;;;;;10.70;77.10;;;;;;5183939;22;19979;-83
2023/10/12 01:57:30;;;;;;;;;;;10.60;77.00;;;;;;5185463;22;20322;-84
2023/10/12 01:59:54;;;;;;;;;;;10.60;77.00;;;;;;5185108;22;19934;-83
2023/10/12 02:02:16;;;;;;;;;;;10.60;77.00;;;;;;5162005;22;20464;-84
2023/10/12 02:04:41;;;;;;;;;;;10.50;76.90;;;;;;5185298;22;20252;-83
2023/10/12 02:07:02;;;;;;;;;;;10.60;77.00;;;;;;5186630;22;20267;-83
2023/10/12 02:09:23;;;;;;;;;;;10.60;77.00;;;;;;5183784;22;20393;-84
2023/10/12 02:11:53;;;;;;;;;;;10.50;77.00;;;;;;5182172;22;20318;-84
2023/10/12 02:14:32;;;;;;;;;;;10.40;76.90;;;;;;5186514;22;19929;-84
2023/10/12 02:16:55;;;;;;;;;;;10.40;76.90;;;;;;5185249;22;20154;-83
2023/10/12 02:19:31;;;;;;;;;;;10.40;77.00;;;;;;5184824;22;20622;-82
2023/10/12 02:21:59;;;;;;;;;;;10.40;77.10;;;;;;5184866;22;20836;-83
2023/10/12 02:24:21;;;;;;;;;;;10.30;76.90;;;;;;5185952;22;19903;-83
2023/10/12 02:26:35;;;;;;;;;;;10.40;76.80;;;;;;5185369;22;19907;-83
2023/10/12 02:28:38;;;;;;;;;;;10.30;76.80;;;;;;5158702;23;19904;-84
2023/10/12 02:30:39;;;;;;;;;;;10.30;76.70;;;;;;5159576;23;20268;-84
2023/10/12 02:32:54;;;;;;;;;;;10.30;76.80;;;;;;5160727;22;19983;-83
2023/10/12 02:34:59;;;;;;;;;;;10.20;76.80;;;;;;5186858;22;19907;-84
2023/10/12 02:39:20;;;;;;;;;;;10.30;76.80;;;;;;5162202;23;20354;-84
2023/10/12 02:41:24;;;;;;;;;;;10.30;76.50;;;;;;5187886;22;19903;-83
2023/10/12 02:43:27;;;;;;;;;;;10.20;76.50;;;;;;5158948;22;20025;-84
2023/10/12 02:45:49;;;;;;;;;;;10.30;76.50;;;;;;5186028;22;20320;-83
2023/10/12 02:48:13;;;;;;;;;;;10.10;76.50;;;;;;5187493;22;20263;-83
2023/10/12 02:50:48;;;;;;;;;;;10.20;76.40;;;;;;5185580;22;19943;-84
2023/10/12 02:53:09;;;;;;;;;;;10.20;76.50;;;;;;5184255;22;19904;-84
2023/10/12 02:55:40;;;;;;;;;;;10.20;76.50;;;;;;5186307;22;19907;-83
2023/10/12 02:58:06;;;;;;;;;;;10.10;76.50;;;;;;5187182;22;19933;-84
2023/10/12 03:00:44;;;;;;;;;;;10.10;76.50;;;;;;5206149;22;20105;-82
2023/10/12 03:03:19;;;;;;;;;;;10.10;76.20;;;;;;5201416;22;20367;-84
2023/10/12 03:05:47;;;;;;;;;;;10.00;76.00;;;;;;5186435;22;20002;-83
2023/10/12 03:08:07;;;;;;;;;;;10.00;76.20;;;;;;5186714;22;19913;-83
2023/10/12 03:10:28;;;;;;;;;;;10.00;76.40;;;;;;5186037;22;19915;-83
2023/10/12 03:12:34;;;;;;;;;;;10.00;76.70;;;;;;5188404;22;19931;-84
2023/10/12 03:14:35;;;;;;;;;;;10.00;76.60;;;;;;5162601;23;19915;-84
2023/10/12 03:16:41;;;;;;;;;;;10.10;76.40;;;;;;5162272;23;20338;-83
2023/10/12 03:18:42;;;;;;;;;;;10.00;76.40;;;;;;5189604;22;19910;-84
2023/10/12 03:21:02;;;;;;;;;;;10.10;76.60;;;;;;5162545;23;19934;-82
2023/10/12 03:23:13;;;;;;;;;;;10.10;76.70;;;;;;5189116;22;19986;-83
2023/10/12 03:25:20;;;;;;;;;;;10.00;76.70;;;;;;5186422;22;20478;-84
2023/10/12 03:27:52;;;;;;;;;;;10.00;77.00;;;;;;5186418;22;19915;-83
2023/10/12 03:30:17;;;;;;;;;;;10.00;76.80;;;;;;5186530;22;19933;-83
2023/10/12 03:32:23;;;;;;;;;;;10.00;76.90;;;;;;5159512;22;19903;-85
2023/10/12 03:37:14;;;;;;;;;;;10.00;76.60;;;;;;5188910;22;19957;-84
2023/10/12 03:39:31;;;;;;;;;;;10.10;76.80;;;;;;5159716;23;19986;-82
2023/10/12 03:44:18;;;;;;;;;;;10.20;76.80;;;;;;5188044;22;19903;-83
2023/10/12 03:46:45;;;;;;;;;;;10.20;76.70;;;;;;5163803;22;20270;-84
2023/10/12 03:49:17;;;;;;;;;;;10.20;76.90;;;;;;5184663;22;19938;-84
2023/10/12 03:51:39;;;;;;;;;;;10.30;77.00;;;;;;5185499;22;19977;-84
2023/10/12 03:54:11;;;;;;;;;;;10.10;76.90;;;;;;5163752;22;19946;-84
2023/10/12 03:56:39;;;;;;;;;;;10.20;76.90;;;;;;5185936;22;19926;-84
2023/10/12 03:59:06;;;;;;;;;;;10.20;76.90;;;;;;5182188;22;19914;-84
2023/10/12 04:01:35;;;;;;;;;;;10.30;76.80;;;;;;5184108;22;19903;-84
2023/10/12 04:03:58;;;;;;;;;;;10.20;76.50;;;;;;5181843;22;19903;-85
2023/10/12 04:06:23;;;;;;;;;;;10.30;76.90;;;;;;5184324;22;19982;-83
2023/10/12 04:08:58;;;;;;;;;;;10.30;77.00;;;;;;5183002;22;21459;-85
2023/10/12 04:13:09;;;;;;;;;;;10.30;77.00;;;;;;5157407;22;20701;-84
2023/10/12 04:15:26;;;;;;;;;;;10.40;77.10;;;;;;5157891;23;19926;-84
2023/10/12 04:19:32;;;;;;;;;;;10.40;76.90;;;;;;5186086;22;20339;-84
2023/10/12 04:21:59;;;;;;;;;;;10.40;76.80;;;;;;5159761;23;20324;-84
2023/10/12 04:24:45;;;;;;;;;;;10.40;77.60;;;;;;5187398;22;19903;-83
2023/10/12 04:26:37;;;;;;;;;;;10.50;76.80;;;;;;5157847;22;19994;-83
2023/10/12 04:28:38;;;;;;;;;;;10.40;76.60;;;;;;5161141;23;19971;-83
2023/10/12 04:31:20;;;;;;;;;;;10.50;76.60;;;;;;5161303;23;20002;-84
2023/10/12 04:33:27;;;;;;;;;;;10.50;76.50;;;;;;5189183;22;19903;-84
2023/10/12 04:38:22;;;;;;;;;;;10.50;76.40;;;;;;5187458;22;19930;-83
2023/10/12 04:40:44;;;;;;;;;;;10.50;76.20;;;;;;5188892;22;19907;-83
2023/10/12 04:42:45;;;;;;;;;;;10.50;76.00;;;;;;5187144;22;19929;-84
2023/10/12 04:45:23;;;;;;;;;;;10.60;76.10;;;;;;5160742;23;19908;-85
2023/10/12 04:47:55;;;;;;;;;;;10.50;76.00;;;;;;5167383;22;19907;-84
2023/10/12 04:49:57;;;;;;;;;;;10.60;76.00;;;;;;5188663;22;19907;-85
2023/10/12 04:52:24;;;;;;;;;;;10.50;75.90;;;;;;5187902;22;20347;-84
2023/10/12 04:57:32;;;;;;;;;;;10.60;76.10;;;;;;5189327;22;19942;-84
2023/10/12 05:00:13;;;;;;;;;;;10.60;76.30;;;;;;5188986;22;19903;-84
2023/10/12 05:05:37;;;;;;;;;;;10.60;76.20;;;;;;5161595;23;20010;-83
2023/10/12 05:07:56;;;;;;;;;;;10.60;76.20;;;;;;5189308;22;20336;-84
2023/10/12 05:10:17;;;;;;;;;;;10.60;76.40;;;;;;5186876;22;19913;-84
2023/10/12 05:12:38;;;;;;;;;;;10.60;76.90;;;;;;5190710;22;19907;-84
2023/10/12 05:15:11;;;;;;;;;;;10.70;76.20;;;;;;5171214;22;19904;-84
2023/10/12 05:17:31;;;;;;;;;;;10.70;76.30;;;;;;5213055;22;19913;-83
2023/10/12 05:19:52;;;;;;;;;;;10.70;76.40;;;;;;5182503;22;19918;-84
2023/10/12 05:22:13;;;;;;;;;;;10.70;76.40;;;;;;5196502;22;19904;-85
2023/10/12 05:24:35;;;;;;;;;;;10.80;76.50;;;;;;5189355;22;19907;-86
2023/10/12 05:27:09;;;;;;;;;;;10.70;76.40;;;;;;5187710;22;19908;-85
2023/10/12 05:29:38;;;;;;;;;;;10.80;76.40;;;;;;5189662;22;19968;-86
2023/10/12 05:34:52;;;;;;;;;;;10.90;76.50;;;;;;5189000;22;20232;-86
2023/10/12 05:36:29;;;;;;;;;;;10.90;76.40;;;;;;5176360;22;19903;-86
2023/10/12 05:38:36;;;;;;;;;;;10.80;76.30;;;;;;5162451;23;19904;-87
2023/10/12 05:40:42;;;;;;;;;;;10.90;76.20;;;;;;5137026;23;19912;-85
2023/10/12 05:42:50;;;;;;;;;;;10.90;76.00;;;;;;5160787;22;19973;-87
2023/10/12 05:44:53;;;;;;;;;;;11.00;76.50;;;;;;5161467;23;19907;-86
2023/10/12 05:46:59;;;;;;;;;;;10.90;76.50;;;;;;5162533;23;19907;-86
2023/10/12 05:49:23;;;;;;;;;;;11.10;76.80;;;;;;5188565;22;20333;-86
2023/10/12 05:51:23;;;;;;;;;;;11.10;77.00;;;;;;5161951;23;20005;-86
2023/10/12 05:53:44;;;;;;;;;;;11.10;76.90;;;;;;5191079;22;19907;-87
2023/10/12 05:56:06;;;;;;;;;;;11.10;76.90;;;;;;5190125;22;19957;-87
2023/10/12 05:58:26;;;;;;;;;;;11.10;76.90;;;;;;5189782;22;20033;-85
2023/10/12 06:00:52;;;;;;;;;;;11.20;77.00;;;;;;5187475;22;19903;-88
2023/10/12 06:03:15;;;;;;;;;;;11.20;76.90;;;;;;5189765;22;19950;-87
2023/10/12 06:05:36;;;;;;;;;;;11.20;76.90;;;;;;5189707;22;19973;-86
2023/10/12 06:08:00;;;;;;;;;;;11.20;76.90;;;;;;5191702;22;19903;-86
2023/10/12 06:10:23;;;;;;;;;;;11.10;76.60;;;;;;5191420;22;19915;-86
2023/10/12 06:12:46;;;;;;;;;;;11.20;76.60;;;;;;5191511;22;19957;-86
2023/10/12 06:15:09;;;;;;;;;;;11.20;76.50;;;;;;5196916;22;19935;-86
2023/10/12 06:17:30;;;;;;;;;;;11.10;76.40;;;;;;5214253;22;19939;-86
2023/10/12 06:19:54;;;;;;;;;;;11.10;76.30;;;;;;5216233;22;19895;-86
2023/10/12 06:22:23;;;;;;;;;;;11.20;76.20;;;;;;5213384;22;19911;-86
2023/10/12 06:24:44;;;;;;;;;;;11.10;76.10;;;;;;5192760;22;20002;-86
2023/10/12 06:26:47;;;;;;;;;;;11.20;76.00;;;;;;5189167;22;19907;-87
2023/10/12 06:28:48;;;;;;;;;;;11.00;75.80;;;;;;5191033;22;19907;-87
2023/10/12 06:30:50;;;;;;;;;;;11.00;75.80;;;;;;5190572;22;20254;-86
2023/10/12 06:32:50;;;;;;;;;;;11.00;76.00;;;;;;5163114;22;19989;-86
2023/10/12 06:35:33;;;;;;;;;;;11.10;76.20;;;;;;5190394;22;20319;-86
2023/10/12 06:42:44;;;;;;;;;;;11.00;76.30;;;;;;5189491;22;19980;-86
2023/10/12 06:45:08;;;;;;;;;;;11.10;76.60;;;;;;5188408;22;19909;-87
2023/10/12 06:47:41;;;;;;;;;;;11.00;76.50;;;;;;5190369;22;19914;-87
2023/10/12 06:50:02;;;;;;;;;;;11.00;76.60;;;;;;5189349;22;19917;-86
2023/10/12 06:52:23;;;;;;;;;;;11.10;76.80;;;;;;5188282;22;19914;-87
2023/10/12 06:54:49;;;;;;;;;;;11.10;76.90;;;;;;5187637;22;19910;-86
2023/10/12 06:57:30;;;;;;;;;;;11.10;77.00;;;;;;5189905;22;19978;-86
2023/10/12 07:00:18;;;;;;;;;;;11.20;77.00;;;;;;5188165;22;19907;-87
2023/10/12 07:02:42;;;;;;;;;;;11.10;77.00;;;;;;5189827;22;19911;-86
2023/10/12 07:05:04;;;;;;;;;;;11.20;77.10;;;;;;5188295;22;19949;-86
2023/10/12 07:07:41;;;;;;;;;;;11.20;77.00;;;;;;5190009;22;19986;-87
2023/10/12 07:12:29;;;;;;;;;;;11.20;77.20;;;;;;5189183;22;20282;-86
2023/10/12 07:14:55;;;;;;;;;;;11.20;77.20;;;;;;5190546;22;19903;-87
2023/10/12 07:17:16;;;;;;;;;;;11.30;77.30;;;;;;5190186;22;19938;-87
2023/10/12 07:19:41;;;;;;;;;;;11.30;77.40;;;;;;5189807;22;19911;-86
2023/10/12 07:22:01;;;;;;;;;;;11.40;77.60;;;;;;5189572;22;19929;-86
2023/10/12 07:24:33;;;;;;;;;;;11.40;77.50;;;;;;5189959;22;19903;-85
2023/10/12 07:26:33;;;;;;;;;;;11.40;77.40;;;;;;5190251;22;19907;-85
2023/10/12 07:28:35;;;;;;;;;;;11.60;77.40;;;;;;5189847;22;20291;-86
2023/10/12 07:30:43;;;;;;;;;;;11.50;76.80;;;;;;5189584;22;20010;-87
2023/10/12 07:32:55;;;;;;;;;;;11.50;76.10;;;;;;5188808;22;19904;-85
2023/10/12 07:34:58;;;;;;;;;;;11.50;76.50;;;;;;5204065;22;19915;-85
2023/10/12 07:36:59;;;;;;;;;;;11.70;76.40;;;;;;5215268;22;19895;-85
2023/10/12 07:41:28;;;;;;;;;;;11.60;76.20;;;;;;5162995;23;19913;-85
2023/10/12 07:43:32;;;;;;;;;;;11.80;76.30;;;;;;5161504;22;19935;-86
2023/10/12 07:45:40;;;;;;;;;;;11.70;76.30;;;;;;5162639;23;19939;-87
2023/10/12 07:47:58;;;;;;;;;;;11.70;76.20;;;;;;5163457;22;19907;-87
2023/10/12 07:50:37;;;;;;;;;;;11.80;76.30;;;;;;5162376;23;19954;-88
2023/10/12 07:52:53;;;;;;;;;;;11.80;76.30;;;;;;5189178;22;19953;-85
2023/10/12 07:55:17;;;;;;;;;;;11.70;76.20;;;;;;5189067;22;20054;-87
2023/10/12 07:57:38;;;;;;;;;;;11.70;76.20;;;;;;5167082;22;19912;-86
2023/10/12 08:02:31;;;;;;;;;;;11.80;76.50;;;;;;5189450;22;19942;-86
2023/10/12 08:05:13;;;;;;;;;;;11.90;76.80;;;;;;5187562;22;19919;-87
2023/10/12 08:07:59;;;;;;;;;;;11.90;76.90;;;;;;5166841;22;20157;-87
2023/10/12 08:10:16;;;;;;;;;;;12.10;77.00;;;;;;5189456;22;19937;-87
2023/10/12 08:12:24;;;;;;;;;;;12.10;77.20;;;;;;5190218;22;19915;-86
2023/10/12 08:14:44;;;;;;;;;;;12.20;77.20;;;;;;5187895;22;19915;-87
2023/10/12 08:19:45;;;;;;;;;;;12.30;77.20;;;;;;5186979;22;19955;-86
2023/10/12 08:22:09;;;;;;;;;;;12.40;77.10;;;;;;5188849;22;19910;-89
2023/10/12 08:24:36;;;;;;;;;;;12.50;77.00;;;;;;5190241;22;19910;-87
2023/10/12 08:27:01;;;;;;;;;;;12.50;76.90;;;;;;5163234;22;19961;-87
2023/10/12 08:30:10;;;;;;;;;;;12.60;76.80;;;;;;5188762;22;19903;-88
2023/10/12 08:39:37;;;;;;;;;;;12.80;76.60;;;;;;5190161;22;19930;-87
2023/10/12 08:42:19;;;;;;;;;;;12.80;76.40;;;;;;5190972;22;20399;-88
2023/10/12 08:44:38;;;;;;;;;;;12.90;76.20;;;;;;5190408;22;19953;-88
2023/10/12 08:47:08;;;;;;;;;;;12.90;75.60;;;;;;5167421;22;19974;-88
2023/10/12 08:49:35;;;;;;;;;;;12.90;75.80;;;;;;5189289;22;19990;-87
2023/10/12 08:51:35;;;;;;;;;;;13.00;75.70;;;;;;5188529;22;19922;-86
2023/10/12 08:53:40;;;;;;;;;;;12.90;75.70;;;;;;5162167;22;20324;-87
2023/10/12 08:55:41;;;;;;;;;;;13.00;75.60;;;;;;5189120;22;19914;-87
2023/10/12 08:57:43;;;;;;;;;;;12.90;75.50;;;;;;5161284;23;19979;-87
2023/10/12 08:59:57;;;;;;;;;;;13.10;75.60;;;;;;5188042;22;19982;-88
2023/10/12 09:02:08;;;;;;;;;;;13.00;75.40;;;;;;5188381;22;20263;-86
2023/10/12 09:04:12;;;;;;;;;;;13.10;75.50;;;;;;5162094;22;20014;-87
2023/10/12 09:06:53;;;;;;;;;;;13.10;75.40;;;;;;5161960;23;19911;-87
2023/10/12 09:08:39;;;;;;;;;;;13.10;75.40;;;;;;5184237;22;19915;-88
2023/10/12 09:10:51;;;;;;;;;;;13.20;75.00;;;;;;5187473;22;19918;-87
2023/10/12 09:12:52;;;;;;;;;;;13.20;75.30;;;;;;5136815;23;19911;-88
2023/10/12 09:14:55;;;;;;;;;;;13.20;75.50;;;;;;5161792;23;19905;-88
2023/10/12 09:16:57;;;;;;;;;;;13.30;75.60;;;;;;5188651;22;19904;-88
2023/10/12 09:18:59;;;;;;;;;;;13.30;75.50;;;;;;5188691;22;19930;-87
2023/10/12 09:21:17;;;;;;;;;;;13.40;75.10;;;;;;5188688;22;19952;-88
2023/10/12 09:23:21;;;;;;;;;;;13.40;74.70;;;;;;5161834;22;19908;-88
2023/10/12 09:26:11;;;;;;;;;;;13.40;74.60;;;;;;5188088;22;20025;-88
2023/10/12 09:27:56;;;;;;;;;;;13.60;74.20;;;;;;5188431;22;19986;-87
2023/10/12 09:30:01;;;;;;;;;;;13.50;73.70;;;;;;5188889;22;19907;-87
2023/10/12 09:32:23;;;;;;;;;;;13.50;73.30;;;;;;5165473;22;19903;-88
2023/10/12 09:35:02;;;;;;;;;;;13.50;72.80;;;;;;5188155;22;19910;-88
2023/10/12 09:37:06;;;;;;;;;;;13.60;72.60;;;;;;5162729;23;19911;-87
2023/10/12 09:39:27;;;;;;;;;;;13.70;72.50;;;;;;5187970;22;19995;-87
2023/10/12 09:41:37;;;;;;;;;;;13.60;71.40;;;;;;5160532;23;19907;-88
2023/10/12 09:43:58;;;;;;;;;;;13.60;71.50;;;;;;5183399;22;19986;-87
2023/10/12 09:46:23;;;;;;;;;;;13.60;70.50;;;;;;5165690;22;19927;-87
2023/10/12 09:48:44;;;;;;;;;;;13.70;70.10;;;;;;5188887;22;19910;-89
2023/10/12 09:51:10;;;;;;;;;;;13.70;70.00;;;;;;5188261;22;19918;-88
2023/10/12 09:53:37;;;;;;;;;;;13.80;69.30;;;;;;5165330;22;19908;-88
2023/10/12 09:55:39;;;;;;;;;;;13.70;69.90;;;;;;5188940;22;19915;-87
2023/10/12 09:58:22;;;;;;;;;;;13.80;69.60;;;;;;5166115;22;19903;-87
2023/10/12 10:03:23;;;;;;;;;;;13.90;69.80;;;;;;5188354;22;20327;-89
2023/10/12 10:05:52;;;;;;;;;;;14.00;69.40;;;;;;5188271;22;19919;-88
2023/10/12 10:08:17;;;;;;;;;;;14.00;67.90;;;;;;5166465;22;19983;-87
2023/10/12 10:10:38;;;;;;;;;;;14.10;68.10;;;;;;5189288;22;19915;-88
2023/10/12 10:13:00;;;;;;;;;;;14.10;67.30;;;;;;5166587;22;19911;-87
2023/10/12 10:15:23;;;;;;;;;;;14.10;67.10;;;;;;5190395;22;19903;-88
2023/10/12 10:17:25;;;;;;;;;;;14.10;64.40;;;;;;5172897;22;19923;-88
2023/10/12 10:19:29;;;;;;;;;;;14.30;66.30;;;;;;5189663;22;19918;-87
2023/10/12 10:21:33;;;;;;;;;;;14.30;63.30;;;;;;5189084;22;20310;-88
2023/10/12 10:23:37;;;;;;;;;;;14.30;63.20;;;;;;5161885;22;19983;-88
2023/10/12 10:25:50;;;;;;;;;;;14.30;62.40;;;;;;5137508;23;19939;-88
2023/10/12 10:27:56;;;;;;;;;;;14.30;63.40;;;;;;5162247;23;19934;-88
2023/10/12 10:29:57;;;;;;;;;;;14.30;62.00;;;;;;5136608;23;20272;-87
2023/10/12 10:31:59;;;;;;;;;;;14.30;62.10;;;;;;5137801;23;19908;-89
2023/10/12 10:34:01;;;;;;;;;;;14.40;61.60;;;;;;5188961;22;20368;-88
2023/10/12 10:36:10;;;;;;;;;;;14.50;62.50;;;;;;5136612;23;19915;-88
2023/10/12 10:38:11;;;;;;;;;;;14.50;62.10;;;;;;5188183;22;19907;-90
2023/10/12 10:40:17;;;;;;;;;;;14.40;62.20;;;;;;5163746;23;19907;-89
2023/10/12 10:42:30;;;;;;;;;;;14.50;63.10;;;;;;5138471;23;19954;-88
2023/10/12 10:44:35;;;;;;;;;;;14.60;63.20;;;;;;5163843;23;19911;-90
2023/10/12 10:46:40;;;;;;;;;;;14.60;62.70;;;;;;5138542;23;19955;-88
2023/10/12 10:48:40;;;;;;;;;;;14.50;62.30;;;;;;5136798;23;19904;-88
2023/10/12 10:50:50;;;;;;;;;;;14.60;61.90;;;;;;5188552;22;19915;-89
2023/10/12 10:52:59;;;;;;;;;;;14.60;61.30;;;;;;5162896;22;19995;-90
2023/10/12 10:55:00;;;;;;;;;;;14.60;61.90;;;;;;5190455;22;19957;-88
2023/10/12 10:57:14;;;;;;;;;;;14.60;61.20;;;;;;5162844;23;20302;-87
2023/10/12 10:59:18;;;;;;;;;;;14.60;60.60;;;;;;5138342;23;19987;-88
2023/10/12 11:01:20;;;;;;;;;;;14.60;59.90;;;;;;5163919;23;19911;-88
2023/10/12 11:03:22;;;;;;;;;;;14.60;59.80;;;;;;5189795;22;19939;-88
2023/10/12 11:05:28;;;;;;;;;;;14.60;60.40;;;;;;5163264;23;19912;-88
2023/10/12 11:07:29;;;;;;;;;;;14.60;59.80;;;;;;5190989;22;19903;-86
2023/10/12 11:09:31;;;;;;;;;;;14.60;59.40;;;;;;5190639;22;19913;-87
2023/10/12 11:11:44;;;;;;;;;;;14.60;59.50;;;;;;5163048;23;19926;-88
2023/10/12 11:13:46;;;;;;;;;;;14.60;59.90;;;;;;5162980;22;20265;-88
2023/10/12 11:15:50;;;;;;;;;;;14.70;60.40;;;;;;5163025;23;19915;-87
2023/10/12 11:17:56;;;;;;;;;;;14.60;58.80;;;;;;5162772;23;19911;-88
2023/10/12 11:20:00;;;;;;;;;;;14.70;59.80;;;;;;5194930;22;19907;-83
2023/10/12 11:22:01;;;;;;;;;;;14.80;59.20;;;;;;5146832;23;19924;-83
2023/10/12 11:24:02;;;;;;;;;;;14.80;59.50;;;;;;5172247;22;19904;-82
2023/10/12 11:26:04;;;;;;;;;;;14.80;59.00;;;;;;5199245;22;19918;-83
2023/10/12 11:28:26;;;;;;;;;;;14.80;58.80;;;;;;5171397;23;19910;-82
2023/10/12 11:30:31;;;;;;;;;;;14.80;58.60;;;;;;5199459;22;20251;-82
2023/10/12 11:32:33;;;;;;;;;;;14.90;59.10;;;;;;5199484;22;19937;-84
2023/10/12 11:34:34;;;;;;;;;;;14.90;58.20;;;;;;5199131;22;19987;-83
2023/10/12 11:36:38;;;;;;;;;;;15.00;58.70;;;;;;5169816;23;19911;-86
2023/10/12 11:38:38;;;;;;;;;;;14.90;57.70;;;;;;5198685;22;19994;-83
2023/10/12 11:40:40;;;;;;;;;;;14.90;57.50;;;;;;5174476;23;19908;-84
2023/10/12 11:42:53;;;;;;;;;;;14.90;56.80;;;;;;5171975;22;19903;-84
2023/10/12 11:44:53;;;;;;;;;;;14.90;56.80;;;;;;5194513;22;20320;-83
2023/10/12 11:46:59;;;;;;;;;;;14.90;56.50;;;;;;5192359;22;19914;-82
2023/10/12 11:49:04;;;;;;;;;;;15.00;56.90;;;;;;5163167;23;19915;-82
2023/10/12 11:54:35;;;;;;;;;;;15.00;56.90;;;;;;4983959;23;19903;-83
2023/10/12 11:56:43;;;;;;;;;;;15.10;56.90;;;;;;5206467;22;19939;-83
2023/10/12 11:59:05;;;;;;;;;;;15.10;56.30;;;;;;5160429;23;19912;-82
2023/10/12 12:01:10;;;;;;;;;;;15.10;56.60;;;;;;5171588;23;19950;-84
2023/10/12 12:03:11;;;;;;;;;;;15.20;56.60;;;;;;5197933;22;19907;-84
2023/10/12 12:05:12;;;;;;;;;;;15.30;56.60;;;;;;5196892;22;19921;-84
2023/10/12 12:07:13;;;;;;;;;;;15.20;56.40;;;;;;5195130;22;20251;-84
2023/10/12 12:09:17;;;;;;;;;;;15.20;57.00;;;;;;5168530;23;19963;-82
2023/10/12 12:11:23;;;;;;;;;;;15.30;56.90;;;;;;5143109;23;19918;-81
2023/10/12 12:13:26;;;;;;;;;;;15.30;57.10;;;;;;5164963;23;19903;-82
2023/10/12 12:15:27;;;;;;;;;;;15.30;57.00;;;;;;5191682;22;20219;-83
2023/10/12 12:17:41;;;;;;;;;;;15.40;56.70;;;;;;5167460;23;20002;-83
2023/10/12 12:19:41;;;;;;;;;;;15.40;56.40;;;;;;5166904;23;19908;-83
2023/10/12 12:21:43;;;;;;;;;;;15.40;56.40;;;;;;5167190;23;19983;-82
2023/10/12 12:23:52;;;;;;;;;;;15.50;56.90;;;;;;5194292;22;19903;-81
2023/10/12 12:26:00;;;;;;;;;;;15.40;56.50;;;;;;5191923;22;19914;-82
2023/10/12 12:28:03;;;;;;;;;;;15.50;55.70;;;;;;5167782;23;19907;-82
2023/10/12 12:30:07;;;;;;;;;;;15.40;56.40;;;;;;5193754;22;19911;-83
2023/10/12 12:32:08;;;;;;;;;;;15.50;55.20;;;;;;5194482;22;20201;-82
2023/10/12 12:34:08;;;;;;;;;;;15.50;55.20;;;;;;5196869;22;19911;-81
2023/10/12 12:36:12;;;;;;;;;;;15.60;54.90;;;;;;5194116;22;19907;-82
2023/10/12 12:40:30;;;;;;;;;;;15.60;53.80;;;;;;5194616;22;19918;-82
2023/10/12 12:42:31;;;;;;;;;;;15.50;54.80;;;;;;5169250;22;19963;-82
2023/10/12 12:44:31;;;;;;;;;;;15.60;54.70;;;;;;5194461;22;19908;-82
2023/10/12 12:46:32;;;;;;;;;;;15.60;54.60;;;;;;5195418;22;19903;-82
2023/10/12 12:48:33;;;;;;;;;;;15.50;53.90;;;;;;5196429;22;19907;-81
2023/10/12 12:50:34;;;;;;;;;;;15.50;54.50;;;;;;5197515;22;19937;-82
2023/10/12 12:52:36;;;;;;;;;;;15.50;53.40;;;;;;5166512;22;19907;-81
2023/10/12 12:54:37;;;;;;;;;;;15.50;54.40;;;;;;5165479;23;19904;-82
2023/10/12 12:56:38;;;;;;;;;;;15.50;54.10;;;;;;5194845;22;20246;-80
2023/10/12 12:58:44;;;;;;;;;;;15.50;54.00;;;;;;5194650;22;20174;-82
2023/10/12 13:00:48;;;;;;;;;;;15.50;54.40;;;;;;5190216;22;19909;-82
2023/10/12 13:02:51;;;;;;;;;;;15.50;54.10;;;;;;5166053;22;19911;-82
2023/10/12 13:04:52;;;;;;;;;;;15.40;54.20;;;;;;5195196;22;19930;-83
2023/10/12 13:06:53;;;;;;;;;;;15.50;54.30;;;;;;5165468;23;20351;-83
2023/10/12 13:08:53;;;;;;;;;;;15.50;54.20;;;;;;5194412;22;20297;-83
2023/10/12 13:10:57;;;;;;;;;;;15.50;53.70;;;;;;5168986;23;19918;-80
2023/10/12 13:12:58;;;;;;;;;;;15.40;53.90;;;;;;5166158;22;19907;-82
2023/10/12 13:15:01;;;;;;;;;;;15.40;53.80;;;;;;5167563;23;19956;-82
2023/10/12 13:17:05;;;;;;;;;;;15.40;54.10;;;;;;5203305;22;19910;-80
2023/10/12 13:19:27;;;;;;;;;;;15.30;53.70;;;;;;5209204;22;19922;-81
2023/10/12 13:21:27;;;;;;;;;;;15.30;54.40;;;;;;5196782;22;19956;-82
2023/10/12 13:23:48;;;;;;;;;;;15.40;53.70;;;;;;5191790;22;19907;-84
2023/10/12 13:26:09;;;;;;;;;;;15.40;53.40;;;;;;5192678;22;19957;-81
2023/10/12 13:28:10;;;;;;;;;;;15.40;53.20;;;;;;5190925;22;19908;-82
2023/10/12 13:30:30;;;;;;;;;;;15.20;52.50;;;;;;5192401;22;19918;-81
2023/10/12 13:32:59;;;;;;;;;;;15.20;52.20;;;;;;5194716;22;19915;-82
2023/10/12 13:35:31;;;;;;;;;;;15.20;52.20;;;;;;5193939;22;19913;-82
2023/10/12 13:37:52;;;;;;;;;;;15.20;52.80;;;;;;5190852;22;19908;-82
2023/10/12 13:40:15;;;;;;;;;;;15.20;53.10;;;;;;5194896;22;19952;-82
2023/10/12 13:42:35;;;;;;;;;;;15.10;53.30;;;;;;5193429;22;19904;-82
2023/10/12 13:44:56;;;;;;;;;;;15.10;53.30;;;;;;5169101;22;19931;-81
2023/10/12 13:47:17;;;;;;;;;;;15.20;53.70;;;;;;5172055;22;19975;-83
2023/10/12 13:49:37;;;;;;;;;;;15.10;54.10;;;;;;5192789;22;19907;-81
2023/10/12 13:51:58;;;;;;;;;;;15.10;54.30;;;;;;5190674;22;20109;-82
2023/10/12 13:54:19;;;;;;;;;;;15.20;54.20;;;;;;5191545;22;20269;-81
2023/10/12 13:56:26;;;;;;;;;;;15.20;54.60;;;;;;5192878;22;19930;-81
2023/10/12 13:58:26;;;;;;;;;;;15.10;54.10;;;;;;5163937;23;19907;-81
2023/10/12 14:00:27;;;;;;;;;;;15.10;54.50;;;;;;5161118;23;20372;-82
2023/10/12 14:02:28;;;;;;;;;;;15.10;54.60;;;;;;5164451;22;20275;-82
2023/10/12 14:04:28;;;;;;;;;;;15.10;54.80;;;;;;5186424;22;20336;-80
2023/10/12 14:06:29;;;;;;;;;;;15.10;54.70;;;;;;5187063;22;19923;-81